Time;durP1;ratioP1;P1;durP2;ratioP2;P2;SDS_P1;SDS_P2;PMS_P1;PMS_P2;Temp;Humidity;BMP_temperature;BMP_pressure;BME280_temperature;BME280_humidity;BME280_pressure;Samples;Min_cycle;Max_cycle;Signal;HPM_P1;HPM_P2
2023/04/16 00:01:40;;;;;;;6.70;4.60;;;;;;;6.59;100.00;96071.38;6127676;23;20020;-89
2023/04/16 00:04:07;;;;;;;7.33;5.20;;;;;;;6.62;100.00;96063.28;6153210;23;20024;-89
2023/04/16 00:06:32;;;;;;;7.30;5.70;;;;;;;6.59;100.00;96066.16;6127899;23;20017;-89
2023/04/16 00:08:58;;;;;;;7.67;5.53;;;;;;;6.64;100.00;96076.19;6152807;23;20455;-89
2023/04/16 00:11:23;;;;;;;8.07;4.93;;;;;;;6.68;100.00;96070.56;6128683;23;20025;-89
2023/04/16 00:13:49;;;;;;;8.23;5.53;;;;;;;6.72;100.00;96060.66;6153060;23;20023;-90
2023/04/16 00:16:15;;;;;;;7.50;5.33;;;;;;;6.70;100.00;96071.22;6128443;23;20067;-90
2023/04/16 00:18:40;;;;;;;8.50;6.07;;;;;;;6.64;100.00;96069.19;6127666;23;20017;-89
2023/04/16 00:21:06;;;;;;;7.37;5.40;;;;;;;6.58;100.00;96064.50;6151998;23;20009;-90
2023/04/16 00:23:32;;;;;;;8.03;5.47;;;;;;;6.68;100.00;96065.31;6153185;23;20027;-90
2023/04/16 00:25:58;;;;;;;8.37;5.53;;;;;;;6.65;100.00;96065.59;6153752;23;20013;-88
2023/04/16 00:28:26;;;;;;;7.27;5.47;;;;;;;6.71;100.00;96066.84;6128108;23;20009;-88
2023/04/16 00:30:52;;;;;;;7.37;5.63;;;;;;;6.59;100.00;96071.38;6152029;23;20028;-89
2023/04/16 00:33:18;;;;;;;8.10;5.63;;;;;;;6.65;100.00;96068.22;6127431;23;20020;-89
2023/04/16 00:35:47;;;;;;;8.27;5.87;;;;;;;6.70;100.00;96058.16;6128583;23;20271;-89
2023/04/16 00:38:13;;;;;;;7.73;5.67;;;;;;;6.68;100.00;96069.72;6128839;23;20380;-89
2023/04/16 00:40:39;;;;;;;7.27;5.43;;;;;;;6.63;100.00;96069.31;6127933;23;20009;-88
2023/04/16 00:43:05;;;;;;;7.50;5.57;;;;;;;6.73;100.00;96063.09;6127492;23;20041;-88
2023/04/16 00:45:30;;;;;;;8.10;5.70;;;;;;;6.76;100.00;96072.47;6128574;23;20079;-88
2023/04/16 00:47:57;;;;;;;8.97;6.30;;;;;;;6.76;100.00;96072.47;6152375;23;20016;-89
2023/04/16 00:50:23;;;;;;;8.80;5.57;;;;;;;6.81;100.00;96070.28;6128181;23;20013;-88
2023/04/16 00:52:49;;;;;;;8.67;6.20;;;;;;;6.71;100.00;96070.28;6127419;23;20013;-88
2023/04/16 00:55:17;;;;;;;8.23;6.23;;;;;;;6.69;100.00;96066.16;6129642;23;20020;-89
2023/04/16 00:57:44;;;;;;;9.33;6.27;;;;;;;6.78;100.00;96068.75;6129020;23;20005;-88
2023/04/16 01:00:10;;;;;;;9.63;6.67;;;;;;;6.87;100.00;96064.47;6126413;23;20106;-90
2023/04/16 01:02:36;;;;;;;8.70;6.10;;;;;;;6.90;100.00;96065.97;6129145;23;20021;-90
2023/04/16 01:05:03;;;;;;;7.87;5.13;;;;;;;6.85;100.00;96069.84;6128770;23;20052;-89
2023/04/16 01:07:28;;;;;;;7.40;5.47;;;;;;;6.91;100.00;96065.84;6128064;23;20013;-90
2023/04/16 01:09:55;;;;;;;7.40;5.30;;;;;;;6.90;100.00;96063.34;6129667;23;20019;-87
2023/04/16 01:12:21;;;;;;;8.07;5.90;;;;;;;6.89;100.00;96066.94;6148318;23;20222;-87
2023/04/16 01:14:47;;;;;;;8.00;5.70;;;;;;;7.09;100.00;96063.31;6154863;23;20013;-88
2023/04/16 01:17:12;;;;;;;7.93;5.83;;;;;;;6.97;100.00;96070.50;6155513;23;20001;-87
2023/04/16 01:19:38;;;;;;;7.93;5.77;;;;;;;6.97;100.00;96077.50;6168670;23;20015;-90
2023/04/16 01:22:04;;;;;;;9.20;6.43;;;;;;;6.96;100.00;96063.63;6154110;23;20096;-90
2023/04/16 01:24:30;;;;;;;8.77;5.87;;;;;;;6.84;100.00;96062.97;6129293;23;20044;-90
2023/04/16 01:26:59;;;;;;;7.60;5.63;;;;;;;6.90;100.00;96071.19;6140145;23;20016;-90
2023/04/16 01:29:25;;;;;;;7.07;5.07;;;;;;;6.85;100.00;96072.44;6159148;23;20088;-89
2023/04/16 01:31:53;;;;;;;6.67;4.90;;;;;;;6.86;100.00;96073.28;6128281;23;20013;-89
2023/04/16 01:34:25;;;;;;;7.53;5.65;;;;;;;6.89;100.00;96074.78;6154204;23;20025;-90
2023/04/16 01:36:51;;;;;;;7.83;5.20;;;;;;;6.82;100.00;96077.97;6152646;23;20023;-90
2023/04/16 01:39:18;;;;;;;14.63;10.23;;;;;;;6.87;100.00;96071.47;6177266;23;20001;-90
2023/04/16 01:41:44;;;;;;;9.30;6.40;;;;;;;6.89;100.00;96074.78;6152686;23;20017;-90
2023/04/16 01:44:10;;;;;;;9.70;6.87;;;;;;;6.93;100.00;96078.75;6152664;23;20017;-89
2023/04/16 01:46:36;;;;;;;8.23;6.10;;;;;;;6.97;100.00;96075.72;6172063;23;20021;-89
2023/04/16 01:49:03;;;;;;;8.20;5.70;;;;;;;6.90;100.00;96076.44;6157407;23;20024;-89
2023/04/16 01:51:31;;;;;;;8.67;6.43;;;;;;;6.92;100.00;96074.50;6152303;23;20021;-89
2023/04/16 01:53:57;;;;;;;10.07;7.23;;;;;;;6.93;100.00;96078.75;6165161;23;20017;-90
2023/04/16 01:56:23;;;;;;;13.13;9.43;;;;;;;6.97;100.00;96072.28;6153050;23;20333;-87
2023/04/16 01:58:49;;;;;;;15.70;11.37;;;;;;;6.93;100.00;96079.59;6152148;23;20027;-87
2023/04/16 02:01:24;;;;;;;7.67;5.20;;;;;;;6.92;100.00;96077.13;6156911;23;20009;-87
2023/04/16 02:03:52;;;;;;;7.87;5.43;;;;;;;7.00;100.00;96064.16;6168489;23;20044;-88
2023/04/16 02:06:27;;;;;;;7.87;5.53;;;;;;;6.95;100.00;96066.38;6175060;23;20027;-89
2023/04/16 02:08:57;;;;;;;8.13;4.90;;;;;;;6.88;100.00;96067.94;6178811;23;20021;-88
2023/04/16 02:11:25;;;;;;;7.13;4.73;;;;;;;6.91;100.00;96070.22;6158271;23;20033;-89
2023/04/16 02:13:50;;;;;;;7.43;5.03;;;;;;;6.94;100.00;96064.72;6158288;23;20495;-89
2023/04/16 02:16:17;;;;;;;7.50;4.60;;;;;;;6.92;100.00;96067.50;6183566;23;20475;-89
2023/04/16 02:18:57;;;;;;;7.90;5.37;;;;;;;6.95;100.00;96071.63;6182874;23;20047;-89
2023/04/16 02:21:23;;;;;;;8.03;5.17;;;;;;;6.99;100.00;96072.97;6157904;23;20075;-89
2023/04/16 02:23:50;;;;;;;7.53;4.60;;;;;;;6.90;100.00;96071.19;6157292;23;20025;-89
2023/04/16 02:26:19;;;;;;;6.57;4.23;;;;;;;6.89;100.00;96075.59;6182863;23;20379;-89
2023/04/16 02:28:46;;;;;;;6.87;4.57;;;;;;;6.94;100.00;96081.25;6157857;23;20092;-89
2023/04/16 02:31:12;;;;;;;7.10;3.90;;;;;;;6.91;100.00;96075.47;6156853;23;20043;-89
2023/04/16 02:33:42;;;;;;;6.37;4.20;;;;;;;6.90;100.00;96081.66;6182914;23;20016;-88
2023/04/16 02:36:10;;;;;;;6.90;4.27;;;;;;;6.77;100.00;96077.56;6152677;23;20082;-89
2023/04/16 02:38:36;;;;;;;5.47;3.57;;;;;;;6.85;100.00;96072.44;6157765;23;20009;-89
2023/04/16 02:41:02;;;;;;;6.10;3.90;;;;;;;6.82;100.00;96083.19;6158701;23;20013;-89
2023/04/16 02:43:27;;;;;;;6.17;3.80;;;;;;;6.93;100.00;96073.53;6158683;23;20023;-89
2023/04/16 02:45:54;;;;;;;6.10;3.57;;;;;;;6.95;100.00;96076.84;6159735;23;20023;-87
2023/04/16 02:48:19;;;;;;;5.97;3.80;;;;;;;6.91;100.00;96088.53;6158347;23;20013;-89
2023/04/16 02:50:45;;;;;;;5.13;3.40;;;;;;;6.93;100.00;96086.59;6181975;23;20000;-89
2023/04/16 02:53:11;;;;;;;6.23;3.73;;;;;;;6.94;100.00;96085.63;6157590;23;20016;-88
2023/04/16 02:55:36;;;;;;;5.97;3.90;;;;;;;6.88;100.00;96087.03;6158113;23;20013;-89
2023/04/16 02:58:20;;;;;;;6.07;4.03;;;;;;;6.86;100.00;96086.34;6166137;23;20013;-89
2023/04/16 03:00:46;;;;;;;5.53;3.77;;;;;;;7.00;100.00;96088.50;6116029;23;20021;-89
2023/04/16 03:03:23;;;;;;;6.13;4.00;;;;;;;7.06;100.00;96087.13;6179001;23;20009;-89
2023/04/16 03:06:15;;;;;;;5.97;3.93;;;;;;;7.00;100.00;96087.69;6204024;23;20096;-89
2023/04/16 03:08:59;;;;;;;6.27;4.10;;;;;;;6.98;100.00;96087.84;6178792;23;20024;-89
2023/04/16 03:11:27;;;;;;;7.50;3.27;;;;;;;7.00;100.00;96085.06;6159060;23;20016;-89
2023/04/16 03:14:31;;;;;;;6.07;3.50;;;;;;;6.95;100.00;96082.06;6181769;23;20087;-88
2023/04/16 03:17:01;;;;;;;6.80;3.53;;;;;;;6.95;100.00;96087.31;6174370;23;20103;-89
2023/04/16 03:19:27;;;;;;;6.10;3.67;;;;;;;6.94;100.00;96083.03;6153972;23;20016;-89
2023/04/16 03:21:52;;;;;;;6.13;3.80;;;;;;;6.93;100.00;96084.00;6181215;23;20009;-88
2023/04/16 03:24:19;;;;;;;5.87;3.73;;;;;;;6.96;100.00;96086.34;6156163;23;20237;-88
2023/04/16 03:26:47;;;;;;;6.20;3.97;;;;;;;6.97;100.00;96091.41;6156796;23;20036;-89
2023/04/16 03:29:13;;;;;;;5.83;3.97;;;;;;;6.91;100.00;96094.59;6179836;23;20005;-87
2023/04/16 03:31:40;;;;;;;5.90;3.97;;;;;;;7.08;100.00;96093.88;6178625;23;20000;-88
2023/04/16 03:34:06;;;;;;;5.87;4.17;;;;;;;6.98;100.00;96095.69;6154977;23;20100;-89
2023/04/16 03:36:33;;;;;;;6.67;4.13;;;;;;;7.05;100.00;96093.34;6155994;23;20122;-89
2023/04/16 03:38:58;;;;;;;6.03;4.20;;;;;;;6.97;100.00;96101.88;6181256;23;20381;-89
2023/04/16 03:41:24;;;;;;;6.33;4.20;;;;;;;7.05;100.00;96095.97;6155145;23;20245;-89
2023/04/16 03:43:50;;;;;;;7.93;4.53;;;;;;;7.15;100.00;96103.78;6180824;23;20020;-89
2023/04/16 03:46:16;;;;;;;8.47;4.10;;;;;;;7.12;100.00;96109.28;6155384;23;20021;-88
2023/04/16 03:48:42;;;;;;;5.93;3.60;;;;;;;7.01;100.00;96107.66;6155386;23;20048;-89
2023/04/16 03:51:07;;;;;;;6.70;3.97;;;;;;;7.06;100.00;96108.06;6154607;23;20027;-89
2023/04/16 03:53:33;;;;;;;5.83;3.80;;;;;;;7.05;100.00;96109.03;6155809;23;20471;-89
2023/04/16 03:55:59;;;;;;;6.83;4.10;;;;;;;6.99;100.00;96106.97;6156479;23;20005;-89
2023/04/16 03:58:26;;;;;;;5.90;3.30;;;;;;;7.05;100.00;96114.25;6156037;23;20020;-89
2023/04/16 04:00:54;;;;;;;7.20;3.60;;;;;;;6.94;100.00;96106.53;6157205;23;20012;-89
2023/04/16 04:03:19;;;;;;;7.00;4.03;;;;;;;6.96;100.00;96112.47;6155775;23;20017;-88
2023/04/16 04:05:47;;;;;;;6.43;3.73;;;;;;;6.99;100.00;96109.59;6179588;23;20013;-89
2023/04/16 04:08:17;;;;;;;7.10;4.00;;;;;;;6.95;100.00;96105.59;6155621;23;20017;-88
2023/04/16 04:10:44;;;;;;;7.03;4.30;;;;;;;6.95;100.00;96109.03;6156302;23;20020;-89
2023/04/16 04:13:11;;;;;;;6.27;4.17;;;;;;;7.02;100.00;96111.91;6172042;23;20015;-89
2023/04/16 04:15:37;;;;;;;7.27;4.30;;;;;;;7.04;100.00;96123.03;6161645;23;20005;-89
2023/04/16 04:18:04;;;;;;;7.57;4.70;;;;;;;7.02;100.00;96119.75;6179855;23;20102;-89
2023/04/16 04:20:29;;;;;;;7.30;3.97;;;;;;;7.04;100.00;96120.44;6155638;23;20009;-88
2023/04/16 04:22:56;;;;;;;7.27;4.40;;;;;;;7.00;100.00;96116.44;6153961;23;20020;-88
2023/04/16 04:25:24;;;;;;;7.23;3.93;;;;;;;7.14;100.00;96113.38;6155441;23;20044;-89
2023/04/16 04:27:50;;;;;;;6.87;4.63;;;;;;;7.01;100.00;96124.19;6179352;23;20028;-88
2023/04/16 04:30:15;;;;;;;7.37;4.47;;;;;;;7.08;100.00;96117.41;6154896;23;20021;-88
2023/04/16 04:32:42;;;;;;;7.90;4.57;;;;;;;7.00;100.00;96126.91;6155206;23;20085;-88
2023/04/16 04:35:08;;;;;;;7.67;4.60;;;;;;;6.99;100.00;96133.13;6180265;23;20028;-88
2023/04/16 04:37:34;;;;;;;7.10;4.10;;;;;;;6.97;100.00;96125.38;6154785;23;20467;-89
2023/04/16 04:40:08;;;;;;;7.43;4.30;;;;;;;7.01;100.00;96131.19;6156492;23;20013;-89
2023/04/16 04:42:34;;;;;;;7.67;4.30;;;;;;;7.05;100.00;96136.00;6154322;23;20044;-89
2023/04/16 04:45:00;;;;;;;7.97;4.67;;;;;;;6.94;100.00;96137.91;6180639;23;20005;-88
2023/04/16 04:47:27;;;;;;;6.27;4.13;;;;;;;6.97;100.00;96132.41;6155159;23;20013;-89
2023/04/16 04:49:53;;;;;;;6.63;3.83;;;;;;;6.97;100.00;96132.41;6154805;23;20009;-89
2023/04/16 04:52:19;;;;;;;7.20;4.17;;;;;;;7.01;100.00;96136.44;6155235;23;20100;-89
2023/04/16 04:54:46;;;;;;;6.60;3.97;;;;;;;7.03;100.00;96137.09;6171317;23;20011;-88
2023/04/16 04:57:11;;;;;;;6.93;3.90;;;;;;;7.06;100.00;96139.44;6162910;23;20020;-89
2023/04/16 04:59:38;;;;;;;7.13;3.67;;;;;;;7.07;100.00;96138.47;6179451;23;20024;-88
2023/04/16 05:02:04;;;;;;;6.63;3.43;;;;;;;7.02;100.00;96140.69;6155325;23;20024;-88
2023/04/16 05:04:51;;;;;;;6.30;4.10;;;;;;;7.02;100.00;96145.91;6156018;23;20437;-88
2023/04/16 05:07:16;;;;;;;7.27;3.40;;;;;;;7.06;100.00;96144.66;6182848;23;20096;-89
2023/04/16 05:09:42;;;;;;;7.53;4.00;;;;;;;7.13;100.00;96158.81;6157055;23;20096;-89
2023/04/16 05:12:07;;;;;;;5.63;3.40;;;;;;;7.01;100.00;96149.50;6157479;23;20071;-89
2023/04/16 05:14:35;;;;;;;5.93;3.33;;;;;;;7.12;100.00;96156.38;6157817;23;20333;-89
2023/04/16 05:17:00;;;;;;;6.87;3.40;;;;;;;7.20;100.00;96156.47;6182712;23;20017;-89
2023/04/16 05:19:26;;;;;;;6.73;3.77;;;;;;;7.17;100.00;96157.56;6156382;23;20020;-89
2023/04/16 05:21:52;;;;;;;6.47;3.60;;;;;;;7.07;100.00;96157.59;6154571;23;20017;-89
2023/04/16 05:24:18;;;;;;;6.97;4.33;;;;;;;7.20;100.00;96159.91;6163678;23;20005;-89
2023/04/16 05:26:44;;;;;;;6.53;3.83;;;;;;;7.20;100.00;96162.53;6180007;23;20023;-89
2023/04/16 05:29:09;;;;;;;6.57;3.40;;;;;;;7.21;100.00;96166.81;6179789;23;20012;-89
2023/04/16 05:31:35;;;;;;;6.83;3.83;;;;;;;7.22;100.00;96168.44;6178937;23;20032;-89
2023/04/16 05:34:00;;;;;;;6.80;4.13;;;;;;;7.30;100.00;96170.34;6184089;23;20008;-89
2023/04/16 05:36:26;;;;;;;5.60;3.50;;;;;;;7.20;100.00;96170.38;6180040;23;20425;-89
2023/04/16 05:38:52;;;;;;;7.83;4.60;;;;;;;7.29;100.00;96168.72;6179643;23;20436;-90
2023/04/16 05:41:17;;;;;;;7.23;3.50;;;;;;;7.30;100.00;96176.41;6153667;23;20020;-89
2023/04/16 05:43:43;;;;;;;6.23;3.60;;;;;;;7.27;100.00;96181.09;6154344;23;20023;-90
2023/04/16 05:46:09;;;;;;;6.17;3.63;;;;;;;7.35;100.00;96180.41;6155127;23;20815;-89
2023/04/16 05:48:35;;;;;;;7.20;4.33;;;;;;;7.29;100.00;96182.63;6179472;23;20017;-89
2023/04/16 05:51:01;;;;;;;6.20;3.50;;;;;;;7.38;100.00;96183.59;6182695;23;20005;-89
2023/04/16 05:53:27;;;;;;;7.33;3.73;;;;;;;7.32;100.00;96187.56;6169203;23;20009;-89
2023/04/16 05:55:52;;;;;;;6.20;3.83;;;;;;;7.40;100.00;96188.66;6158869;23;20017;-90
2023/04/16 05:58:18;;;;;;;6.40;3.87;;;;;;;7.28;100.00;96188.81;6158146;23;20516;-89
2023/04/16 06:00:44;;;;;;;9.53;4.17;;;;;;;7.29;100.00;96190.47;6158411;23;20032;-89
2023/04/16 06:03:09;;;;;;;7.40;4.20;;;;;;;7.54;100.00;96188.22;6156985;23;20025;-89
2023/04/16 06:05:35;;;;;;;7.30;4.00;;;;;;;7.57;100.00;96201.00;6160968;23;20001;-89
2023/04/16 06:08:01;;;;;;;6.27;3.87;;;;;;;7.39;100.00;96193.06;6162404;23;20048;-89
2023/04/16 06:10:27;;;;;;;7.70;3.93;;;;;;;7.36;100.00;96193.34;6200889;23;20002;-89
2023/04/16 06:12:52;;;;;;;7.60;4.83;;;;;;;7.42;100.00;96195.41;6158387;23;20020;-89
2023/04/16 06:15:18;;;;;;;7.83;4.67;;;;;;;7.50;100.00;96202.53;6160523;23;20039;-88
2023/04/16 06:17:44;;;;;;;7.47;4.17;;;;;;;7.41;100.00;96203.38;6158693;23;20017;-89
2023/04/16 06:20:11;;;;;;;7.90;5.03;;;;;;;7.36;100.00;96209.03;6157875;23;20013;-89
2023/04/16 06:22:36;;;;;;;8.10;4.43;;;;;;;7.44;100.00;96214.38;6156665;23;20024;-90
2023/04/16 06:25:03;;;;;;;8.27;4.60;;;;;;;7.54;100.00;96206.53;6184255;23;20009;-90
2023/04/16 06:27:30;;;;;;;7.97;4.63;;;;;;;7.49;100.00;96203.53;6181891;23;20020;-90
2023/04/16 06:29:57;;;;;;;9.73;5.17;;;;;;;7.47;100.00;96208.06;6155200;23;20095;-90
2023/04/16 06:32:22;;;;;;;10.87;6.03;;;;;;;7.61;100.00;96210.22;6155665;23;20023;-90
2023/04/16 06:34:48;;;;;;;8.47;5.23;;;;;;;7.48;100.00;96207.13;6165671;23;20017;-91
2023/04/16 06:37:15;;;;;;;8.23;4.90;;;;;;;7.69;100.00;96209.53;6198120;23;20018;-90
2023/04/16 06:39:41;;;;;;;9.43;5.73;;;;;;;7.69;100.00;96215.59;6172669;23;20017;-90
2023/04/16 06:42:07;;;;;;;9.70;5.80;;;;;;;7.68;100.00;96219.19;6150922;23;20021;-91
2023/04/16 06:44:34;;;;;;;9.67;5.83;;;;;;;7.75;100.00;96219.44;6156413;23;20020;-90
2023/04/16 06:47:00;;;;;;;10.37;5.60;;;;;;;7.63;100.00;96217.94;6155109;23;20016;-90
2023/04/16 06:49:25;;;;;;;10.43;6.50;;;;;;;7.62;100.00;96211.91;6156568;23;20021;-90
2023/04/16 06:51:51;;;;;;;8.90;5.57;;;;;;;7.62;100.00;96216.31;6181584;23;20016;-90
2023/04/16 06:54:18;;;;;;;10.97;6.07;;;;;;;7.51;100.00;96214.66;6157045;23;20020;-90
2023/04/16 06:56:44;;;;;;;11.63;7.20;;;;;;;7.61;100.00;96223.31;6156904;23;20013;-90
2023/04/16 06:59:12;;;;;;;12.07;7.50;;;;;;;7.70;100.00;96219.84;6183102;23;20020;-90
2023/04/16 07:01:38;;;;;;;10.70;6.67;;;;;;;7.61;100.00;96225.09;6156868;23;20091;-90
2023/04/16 07:04:05;;;;;;;11.07;6.90;;;;;;;7.90;100.00;96225.03;6155892;23;20326;-90
2023/04/16 07:06:31;;;;;;;11.47;7.43;;;;;;;7.87;100.00;96228.75;6155989;23;20107;-90
2023/04/16 07:08:56;;;;;;;11.77;7.53;;;;;;;7.84;100.00;96229.03;6182785;23;20510;-90
2023/04/16 07:11:22;;;;;;;12.53;8.63;;;;;;;7.95;100.00;96230.69;6157179;23;20012;-90
2023/04/16 07:13:55;;;;;;;11.57;7.57;;;;;;;8.12;100.00;96222.06;6157000;23;20028;-89
2023/04/16 07:16:22;;;;;;;10.87;7.43;;;;;;;8.07;100.00;96223.47;6181430;23;20021;-89
2023/04/16 07:18:51;;;;;;;12.40;7.57;;;;;;;7.97;100.00;96223.50;6157863;23;20040;-89
2023/04/16 07:21:18;;;;;;;12.47;8.53;;;;;;;7.93;100.00;96228.19;6182593;23;20092;-90
2023/04/16 07:23:44;;;;;;;12.80;7.97;;;;;;;7.91;100.00;96231.91;6155713;23;20023;-90
2023/04/16 07:26:10;;;;;;;13.10;7.83;;;;;;;8.08;100.00;96223.34;6155665;23;20021;-90
2023/04/16 07:28:36;;;;;;;15.10;8.97;;;;;;;7.96;100.00;96234.94;6181761;23;20024;-90
2023/04/16 07:31:03;;;;;;;14.97;9.33;;;;;;;8.06;100.00;96222.66;6155561;23;20128;-90
2023/04/16 07:33:29;;;;;;;12.27;8.50;;;;;;;8.08;100.00;96225.97;6155648;23;20338;-90
2023/04/16 07:35:56;;;;;;;14.47;8.90;;;;;;;8.09;100.00;96226.78;6156975;23;20017;-90
2023/04/16 07:38:24;;;;;;;14.00;9.23;;;;;;;8.18;100.00;96234.59;6180810;23;20064;-91
2023/04/16 07:40:52;;;;;;;14.30;8.57;;;;;;;8.01;100.00;96238.78;6156983;23;20001;-90
2023/04/16 07:43:18;;;;;;;13.93;8.77;;;;;;;8.02;100.00;96237.00;6155314;23;20028;-91
2023/04/16 07:45:44;;;;;;;13.80;9.37;;;;;;;7.88;100.00;96242.66;6156127;23;20441;-91
2023/04/16 07:48:13;;;;;;;14.10;8.93;;;;;;;8.06;100.00;96237.53;6180252;23;20345;-90
2023/04/16 07:50:40;;;;;;;13.20;9.10;;;;;;;8.02;100.00;96250.09;6162151;23;19989;-90
2023/04/16 07:53:07;;;;;;;14.70;9.57;;;;;;;7.95;100.00;96251.63;6172653;23;20013;-90
2023/04/16 07:55:34;;;;;;;14.27;9.57;;;;;;;8.03;100.00;96254.34;6166759;23;20012;-89
2023/04/16 07:58:05;;;;;;;14.10;9.60;;;;;;;8.13;100.00;96256.94;6193597;23;20082;-89
2023/04/16 08:00:31;;;;;;;13.77;8.43;;;;;;;8.23;100.00;96249.88;6182413;23;20012;-89
2023/04/16 08:02:58;;;;;;;12.73;8.37;;;;;;;8.28;100.00;96255.50;6156291;23;20013;-90
2023/04/16 08:05:24;;;;;;;13.73;9.67;;;;;;;8.43;100.00;96258.50;6181878;23;20016;-90
2023/04/16 08:07:50;;;;;;;14.23;9.17;;;;;;;8.21;100.00;96254.41;6155941;23;20021;-90
2023/04/16 08:10:16;;;;;;;12.77;9.00;;;;;;;8.44;100.00;96258.34;6156823;23;20060;-90
2023/04/16 08:12:41;;;;;;;11.47;8.43;;;;;;;8.45;100.00;96267.03;6180465;23;20096;-90
2023/04/16 08:15:07;;;;;;;12.40;7.67;;;;;;;8.49;100.00;96264.00;6156964;23;20013;-90
2023/04/16 08:17:33;;;;;;;13.23;8.13;;;;;;;8.56;100.00;96261.63;6155482;23;20106;-91
2023/04/16 08:19:59;;;;;;;12.23;8.57;;;;;;;8.30;100.00;96265.84;6157935;23;20472;-90
2023/04/16 08:22:25;;;;;;;12.73;8.30;;;;;;;8.47;100.00;96278.19;6203785;23;20009;-90
2023/04/16 08:24:51;;;;;;;13.03;8.87;;;;;;;8.52;100.00;96278.63;6160177;23;20004;-90
2023/04/16 08:27:17;;;;;;;12.70;8.50;;;;;;;8.61;100.00;96271.66;6159959;23;20024;-90
2023/04/16 08:29:42;;;;;;;12.87;8.27;;;;;;;8.59;100.00;96271.81;6157044;23;19997;-90
2023/04/16 08:32:09;;;;;;;11.87;7.63;;;;;;;8.69;100.00;96280.44;6155007;23;20021;-90
2023/04/16 08:34:37;;;;;;;11.83;8.53;;;;;;;8.85;100.00;96284.22;6182480;23;20001;-89
2023/04/16 08:37:39;;;;;;;11.37;7.17;;;;;;;8.58;100.00;96282.44;6159585;23;20009;-89
2023/04/16 08:40:11;;;;;;;11.87;7.73;;;;;;;8.33;100.00;96283.91;6161200;23;20013;-90
2023/04/16 08:43:17;;;;;;;11.47;7.73;;;;;;;8.32;100.00;96292.75;6162338;23;20020;-90
2023/04/16 08:45:46;;;;;;;12.13;7.97;;;;;;;8.26;100.00;96294.94;6102866;23;20112;-91
2023/04/16 08:48:15;;;;;;;12.70;8.63;;;;;;;8.46;100.00;96293.09;6161186;23;20099;-90
2023/04/16 08:50:42;;;;;;;11.70;7.77;;;;;;;8.36;100.00;96299.34;6160738;23;20017;-89
2023/04/16 08:53:18;;;;;;;10.37;7.23;;;;;;;8.47;100.00;96296.56;6162368;23;20080;-90
2023/04/16 08:55:48;;;;;;;12.23;7.97;;;;;;;8.52;100.00;96296.97;6160344;23;20063;-90
2023/04/16 08:58:29;;;;;;;11.07;8.10;;;;;;;8.32;100.00;96300.59;6187039;23;20016;-90
2023/04/16 09:00:55;;;;;;;12.30;8.17;;;;;;;8.29;100.00;96308.75;6158782;23;20360;-90
2023/04/16 09:03:22;;;;;;;12.27;8.13;;;;;;;8.25;100.00;96308.19;6158251;23;20012;-90
2023/04/16 09:05:51;;;;;;;12.37;7.93;;;;;;;8.33;100.00;96310.91;6160391;23;20009;-90
2023/04/16 09:08:21;;;;;;;12.73;8.87;;;;;;;8.29;100.00;96313.97;6182648;23;20101;-90
2023/04/16 09:10:48;;;;;;;14.43;8.80;;;;;;;8.38;100.00;96323.63;6159667;23;20040;-90
2023/04/16 09:13:19;;;;;;;12.00;7.83;;;;;;;8.43;100.00;96319.59;6158943;23;20013;-90
2023/04/16 09:16:17;;;;;;;11.87;8.43;;;;;;;8.56;100.00;96319.28;6167220;23;20009;-90
2023/04/16 09:19:46;;;;;;;11.00;7.93;;;;;;;8.66;100.00;96320.06;6155360;23;20009;-90
2023/04/16 09:22:22;;;;;;;11.33;7.87;;;;;;;8.54;100.00;96323.84;6169006;23;20009;-90
2023/04/16 09:24:48;;;;;;;12.23;7.65;;;;;;;8.55;100.00;96330.75;6188217;23;20016;-89
2023/04/16 09:27:16;;;;;;;11.67;7.83;;;;;;;8.37;100.00;96329.81;6161531;23;20340;-89
2023/04/16 09:29:43;;;;;;;12.83;8.47;;;;;;;8.39;100.00;96327.91;6159459;23;20071;-89
2023/04/16 09:32:10;;;;;;;13.37;8.10;;;;;;;8.44;100.00;96329.09;6159769;23;20009;-88
2023/04/16 09:34:58;;;;;;;11.77;8.27;;;;;;;8.46;100.00;96329.81;6183886;23;20436;-87
2023/04/16 09:37:28;;;;;;;10.90;7.03;;;;;;;8.27;100.00;96338.50;6158726;23;20082;-89
2023/04/16 09:40:00;;;;;;;9.70;6.23;;;;;;;8.31;100.00;96341.66;6158721;23;20016;-89
2023/04/16 09:42:34;;;;;;;11.37;7.97;;;;;;;8.37;100.00;96338.47;6159167;23;20047;-89
2023/04/16 09:45:23;;;;;;;10.47;6.63;;;;;;;8.20;100.00;96340.03;6163649;23;20012;-86
2023/04/16 09:47:49;;;;;;;11.03;7.30;;;;;;;8.13;100.00;96341.59;6187410;23;20013;-90
2023/04/16 09:50:17;;;;;;;10.07;6.97;;;;;;;7.86;100.00;96344.94;6185745;23;20016;-90
2023/04/16 09:52:48;;;;;;;9.40;6.27;;;;;;;8.17;100.00;96347.38;6188794;23;20108;-91
2023/04/16 09:55:39;;;;;;;16.57;10.70;;;;;;;8.32;100.00;96355.63;6169773;23;20750;-91
2023/04/16 09:58:44;;;;;;;14.00;8.73;;;;;;;8.19;100.00;96353.31;6176737;23;20021;-90
2023/04/16 10:01:22;;;;;;;11.20;7.63;;;;;;;8.21;100.00;96346.09;6206821;23;20021;-91
2023/04/16 10:03:51;;;;;;;15.60;9.80;;;;;;;8.47;100.00;96352.41;6183882;23;20008;-89
2023/04/16 10:06:36;;;;;;;10.13;6.83;;;;;;;8.57;100.00;96344.50;6208165;23;20065;-90
2023/04/16 10:10:39;;;;;;;8.87;5.70;;;;;;;8.35;100.00;96352.69;6200468;23;20032;-87
2023/04/16 10:39:53;;;;;;;8.27;4.93;;;;;;;9.17;100.00;96368.50;6060763;23;20026;-90
2023/04/16 11:33:11;;;;;;;5.93;3.60;;;;;;;8.60;100.00;96394.03;6190459;23;20089;-89
2023/04/16 11:50:30;;;;;;;7.93;5.10;;;;;;;8.89;100.00;96401.81;6195852;23;20060;-90
2023/04/16 11:53:18;;;;;;;8.87;6.77;;;;;;;9.22;100.00;96402.19;6164456;23;20296;-90
2023/04/16 12:03:02;;;;;;;8.17;4.87;;;;;;;8.81;100.00;96408.72;6131435;23;20096;-90
2023/04/16 12:16:38;;;;;;;6.43;3.57;;;;;;;8.76;100.00;96405.72;6192979;23;20013;-86
2023/04/16 12:19:23;;;;;;;6.57;3.80;;;;;;;8.87;100.00;96410.78;6188685;23;20020;-85
2023/04/16 12:21:53;;;;;;;5.37;3.23;;;;;;;8.91;100.00;96412.97;6142509;23;20048;-88
2023/04/16 12:24:28;;;;;;;6.40;3.63;;;;;;;8.95;100.00;96413.50;6166404;23;20044;-87
2023/04/16 12:27:11;;;;;;;7.80;4.30;;;;;;;8.98;100.00;96418.44;6185199;23;20015;-88
2023/04/16 12:29:38;;;;;;;;;;;;;;;8.64;100.00;96413.75;6155965;23;20097;-88
2023/04/16 12:32:20;;;;;;;6.10;4.03;;;;;;;8.70;100.00;96417.59;6155432;23;19971;-88
2023/04/16 12:34:50;;;;;;;6.63;3.50;;;;;;;8.67;100.00;96408.22;6154957;23;20021;-87
2023/04/16 12:37:15;;;;;;;6.53;4.43;;;;;;;8.83;100.00;96414.66;6154183;23;20125;-88
2023/04/16 12:39:41;;;;;;;6.37;3.80;;;;;;;8.91;100.00;96417.38;6153691;23;20090;-88
2023/04/16 12:42:10;;;;;;;6.63;4.00;;;;;;;8.99;100.00;96414.88;6153812;23;20028;-88
2023/04/16 12:44:35;;;;;;;5.40;3.50;;;;;;;8.99;100.00;96412.25;6154614;23;20047;-87
2023/04/16 12:47:01;;;;;;;6.47;4.13;;;;;;;8.93;100.00;96412.81;6154960;23;20013;-88
2023/04/16 12:49:31;;;;;;;6.97;3.90;;;;;;;8.88;100.00;96412.41;6169164;23;20380;-87
2023/04/16 12:52:03;;;;;;;6.72;3.55;;;;;;;9.07;100.00;96417.59;6148004;23;20024;-87
2023/04/16 12:54:37;;;;;;;5.13;3.75;;;;;;;9.02;100.00;96414.59;6162250;23;20315;-88
2023/04/16 12:57:04;;;;;;;7.30;4.37;;;;;;;9.03;100.00;96418.03;6163045;23;20016;-87
2023/04/16 12:59:33;;;;;;;6.90;4.47;;;;;;;9.08;100.00;96416.63;6163339;23;20047;-86
2023/04/16 13:02:01;;;;;;;6.80;4.10;;;;;;;8.98;100.00;96415.81;6163980;23;20009;-87
2023/04/16 13:04:27;;;;;;;6.13;4.07;;;;;;;9.06;100.00;96413.31;6163076;23;20099;-87
2023/04/16 13:06:58;;;;;;;6.07;4.10;;;;;;;9.13;100.00;96417.00;6167720;23;20012;-88
2023/04/16 13:09:30;;;;;;;5.83;3.67;;;;;;;9.19;100.00;96413.81;6165956;23;20009;-90
2023/04/16 13:11:55;;;;;;;7.50;4.60;;;;;;;9.04;100.00;96414.44;6162230;23;20414;-88
2023/04/16 13:14:21;;;;;;;7.10;4.60;;;;;;;8.86;100.00;96407.34;6164140;23;20017;-88
2023/04/16 13:16:47;;;;;;;8.63;4.43;;;;;;;9.11;100.00;96410.25;6159388;23;20021;-88
2023/04/16 13:19:14;;;;;;;6.93;4.10;;;;;;;8.90;100.00;96413.13;6160248;23;20017;-88
2023/04/16 13:22:02;;;;;;;;;;;;;;;;;;;;;
2023/04/16 13:28:40;;;;;;;7.70;4.73;;;;;;;8.79;100.00;96418.56;6199956;23;20032;-88
2023/04/16 13:31:06;;;;;;;7.60;4.80;;;;;;;8.82;100.00;96420.84;6202977;23;20027;-88
2023/04/16 13:33:33;;;;;;;8.03;5.13;;;;;;;8.85;100.00;96420.56;6132751;23;20025;-88
2023/04/16 13:35:58;;;;;;;7.23;4.70;;;;;;;8.86;100.00;96419.63;6154764;23;20021;-88